sensor_id;sensor_type;location;lat;lon;timestamp;pressure;altitude;pressure_sealevel;temperature;humidity
57708;BME280;43540;51.690;9.562;2023-08-01T00:00:18;97761.53;;;16.21;100.00
57708;BME280;43540;51.690;9.562;2023-08-01T00:02:45;97535.25;;;14.93;100.00
57708;BME280;43540;51.690;9.562;2023-08-01T00:05:12;97542.97;;;15.01;100.00
57708;BME280;43540;51.690;9.562;2023-08-01T00:07:39;97712.31;;;16.14;100.00
57708;BME280;43540;51.690;9.562;2023-08-01T00:10:07;97728.00;;;16.29;100.00
57708;BME280;43540;51.690;9.562;2023-08-01T00:12:34;97719.44;;;16.27;100.00
57708;BME280;43540;51.690;9.562;2023-08-01T00:15:08;97725.56;;;16.34;100.00
57708;BME280;43540;51.690;9.562;2023-08-01T00:17:36;97512.91;;;14.96;100.00
57708;BME280;43540;51.690;9.562;2023-08-01T00:20:04;97712.34;;;16.34;100.00
57708;BME280;43540;51.690;9.562;2023-08-01T00:22:31;97677.13;;;16.07;100.00
57708;BME280;43540;51.690;9.562;2023-08-01T00:24:58;97674.91;;;16.30;100.00
57708;BME280;43540;51.690;9.562;2023-08-01T00:27:26;97691.38;;;16.45;100.00
57708;BME280;43540;51.690;9.562;2023-08-01T00:29:54;97478.03;;;15.07;100.00
57708;BME280;43540;51.690;9.562;2023-08-01T00:32:21;97616.13;;;15.95;100.00
57708;BME280;43540;51.690;9.562;2023-08-01T00:34:50;97593.16;;;15.96;100.00
57708;BME280;43540;51.690;9.562;2023-08-01T00:37:18;97454.50;;;15.12;100.00
57708;BME280;43540;51.690;9.562;2023-08-01T00:39:45;97473.00;;;15.19;100.00
57708;BME280;43540;51.690;9.562;2023-08-01T00:42:12;97612.50;;;16.09;100.00
57708;BME280;43540;51.690;9.562;2023-08-01T00:44:40;97570.19;;;15.76;100.00
57708;BME280;43540;51.690;9.562;2023-08-01T00:47:07;97499.81;;;15.35;100.00
57708;BME280;43540;51.690;9.562;2023-08-01T00:49:35;97556.56;;;15.66;100.00
57708;BME280;43540;51.690;9.562;2023-08-01T00:52:02;97509.78;;;15.40;100.00
57708;BME280;43540;51.690;9.562;2023-08-01T00:54:29;97495.13;;;15.24;100.00
57708;BME280;43540;51.690;9.562;2023-08-01T00:57:05;97544.56;;;15.70;100.00
57708;BME280;43540;51.690;9.562;2023-08-01T00:59:32;97434.81;;;15.01;100.00
57708;BME280;43540;51.690;9.562;2023-08-01T01:01:59;97602.31;;;16.26;100.00
57708;BME280;43540;51.690;9.562;2023-08-01T01:04:27;97623.25;;;16.34;100.00
57708;BME280;43540;51.690;9.562;2023-08-01T01:07:00;97628.13;;;16.24;100.00
57708;BME280;43540;51.690;9.562;2023-08-01T01:09:30;97604.75;;;16.28;100.00
57708;BME280;43540;51.690;9.562;2023-08-01T01:11:58;97612.28;;;16.24;100.00
57708;BME280;43540;51.690;9.562;2023-08-01T01:14:29;97623.47;;;16.39;100.00
57708;BME280;43540;51.690;9.562;2023-08-01T01:16:55;97613.69;;;16.27;100.00
57708;BME280;43540;51.690;9.562;2023-08-01T01:19:22;97603.94;;;16.14;100.00
57708;BME280;43540;51.690;9.562;2023-08-01T01:21:49;97637.09;;;16.30;100.00
57708;BME280;43540;51.690;9.562;2023-08-01T01:24:17;97630.97;;;16.36;100.00
57708;BME280;43540;51.690;9.562;2023-08-01T01:26:46;97622.84;;;16.37;100.00
57708;BME280;43540;51.690;9.562;2023-08-01T01:29:15;97618.38;;;16.25;100.00
57708;BME280;43540;51.690;9.562;2023-08-01T01:31:42;97627.13;;;16.25;100.00
57708;BME280;43540;51.690;9.562;2023-08-01T01:34:10;97633.00;;;16.27;100.00
57708;BME280;43540;51.690;9.562;2023-08-01T01:36:37;97622.03;;;16.24;100.00
57708;BME280;43540;51.690;9.562;2023-08-01T01:39:04;97598.03;;;16.25;100.00
57708;BME280;43540;51.690;9.562;2023-08-01T01:41:35;97601.28;;;16.27;100.00
57708;BME280;43540;51.690;9.562;2023-08-01T01:44:01;97590.94;;;16.19;100.00
57708;BME280;43540;51.690;9.562;2023-08-01T01:46:28;97596.41;;;16.31;100.00
57708;BME280;43540;51.690;9.562;2023-08-01T01:48:55;97609.00;;;16.35;100.00
57708;BME280;43540;51.690;9.562;2023-08-01T01:51:28;97600.06;;;16.23;100.00
57708;BME280;43540;51.690;9.562;2023-08-01T01:53:54;97597.22;;;16.31;100.00
57708;BME280;43540;51.690;9.562;2023-08-01T01:56:21;97580.97;;;16.28;100.00
57708;BME280;43540;51.690;9.562;2023-08-01T01:58:48;97542.97;;;16.02;100.00
57708;BME280;43540;51.690;9.562;2023-08-01T02:01:15;97558.41;;;16.05;100.00
57708;BME280;43540;51.690;9.562;2023-08-01T02:03:42;97567.13;;;16.26;100.00
57708;BME280;43540;51.690;9.562;2023-08-01T02:06:08;97560.84;;;16.20;100.00
57708;BME280;43540;51.690;9.562;2023-08-01T02:08:35;97533.97;;;16.30;100.00
57708;BME280;43540;51.690;9.562;2023-08-01T02:11:02;97496.53;;;16.26;100.00
57708;BME280;43540;51.690;9.562;2023-08-01T02:13:30;97496.38;;;16.28;100.00
57708;BME280;43540;51.690;9.562;2023-08-01T02:16:00;97482.28;;;16.34;100.00
57708;BME280;43540;51.690;9.562;2023-08-01T02:18:27;97470.31;;;16.25;100.00
57708;BME280;43540;51.690;9.562;2023-08-01T02:20:57;97482.53;;;16.26;100.00
57708;BME280;43540;51.690;9.562;2023-08-01T02:23:23;97491.88;;;16.28;100.00
57708;BME280;43540;51.690;9.562;2023-08-01T02:25:51;97489.69;;;16.12;100.00
57708;BME280;43540;51.690;9.562;2023-08-01T02:28:18;97483.16;;;16.21;100.00
57708;BME280;43540;51.690;9.562;2023-08-01T02:30:45;97459.09;;;16.36;100.00
57708;BME280;43540;51.690;9.562;2023-08-01T02:33:11;97444.47;;;16.33;100.00
57708;BME280;43540;51.690;9.562;2023-08-01T02:35:38;97461.34;;;16.32;100.00
57708;BME280;43540;51.690;9.562;2023-08-01T02:38:05;97456.28;;;16.31;100.00
57708;BME280;43540;51.690;9.562;2023-08-01T02:40:32;97421.78;;;16.12;100.00
57708;BME280;43540;51.690;9.562;2023-08-01T02:42:59;97450.19;;;16.24;100.00
57708;BME280;43540;51.690;9.562;2023-08-01T02:45:25;97456.06;;;16.32;100.00
57708;BME280;43540;51.690;9.562;2023-08-01T02:47:52;97446.13;;;16.28;100.00
57708;BME280;43540;51.690;9.562;2023-08-01T02:50:22;97442.66;;;16.27;100.00
57708;BME280;43540;51.690;9.562;2023-08-01T02:52:49;97444.09;;;16.30;100.00
57708;BME280;43540;51.690;9.562;2023-08-01T02:55:16;97427.00;;;16.26;100.00
57708;BME280;43540;51.690;9.562;2023-08-01T02:57:43;97426.31;;;16.43;100.00
57708;BME280;43540;51.690;9.562;2023-08-01T03:00:10;97399.09;;;16.36;100.00
57708;BME280;43540;51.690;9.562;2023-08-01T03:02:41;97402.97;;;16.34;100.00
57708;BME280;43540;51.690;9.562;2023-08-01T03:05:09;97409.06;;;16.41;100.00
57708;BME280;43540;51.690;9.562;2023-08-01T03:07:36;97419.28;;;16.31;100.00
57708;BME280;43540;51.690;9.562;2023-08-01T03:10:03;97404.59;;;16.35;100.00
57708;BME280;43540;51.690;9.562;2023-08-01T03:12:30;97411.94;;;16.33;100.00
57708;BME280;43540;51.690;9.562;2023-08-01T03:14:57;97425.16;;;16.33;100.00
57708;BME280;43540;51.690;9.562;2023-08-01T03:17:24;97424.56;;;16.31;100.00
57708;BME280;43540;51.690;9.562;2023-08-01T03:19:51;97419.63;;;16.41;100.00
57708;BME280;43540;51.690;9.562;2023-08-01T03:22:18;97396.25;;;16.38;100.00
57708;BME280;43540;51.690;9.562;2023-08-01T03:24:44;97402.97;;;16.40;100.00
57708;BME280;43540;51.690;9.562;2023-08-01T03:27:11;97400.53;;;16.39;100.00
57708;BME280;43540;51.690;9.562;2023-08-01T03:29:38;97381.91;;;16.20;100.00
57708;BME280;43540;51.690;9.562;2023-08-01T03:32:06;97395.41;;;16.44;100.00
57708;BME280;43540;51.690;9.562;2023-08-01T03:34:32;97410.66;;;16.48;100.00
57708;BME280;43540;51.690;9.562;2023-08-01T03:36:59;97410.69;;;16.42;100.00
57708;BME280;43540;51.690;9.562;2023-08-01T03:39:26;97409.06;;;16.41;100.00
57708;BME280;43540;51.690;9.562;2023-08-01T03:41:53;97421.81;;;16.50;100.00
57708;BME280;43540;51.690;9.562;2023-08-01T03:44:20;97394.03;;;16.35;100.00
57708;BME280;43540;51.690;9.562;2023-08-01T03:46:46;97410.44;;;16.50;100.00
57708;BME280;43540;51.690;9.562;2023-08-01T03:49:14;97408.03;;;16.42;100.00
57708;BME280;43540;51.690;9.562;2023-08-01T03:51:41;97415.34;;;16.46;100.00
57708;BME280;43540;51.690;9.562;2023-08-01T03:54:08;97400.69;;;16.44;100.00
57708;BME280;43540;51.690;9.562;2023-08-01T03:56:39;97397.09;;;16.32;100.00
57708;BME280;43540;51.690;9.562;2023-08-01T03:59:13;97391.34;;;16.48;100.00
57708;BME280;43540;51.690;9.562;2023-08-01T04:01:40;97392.81;;;16.37;100.00
57708;BME280;43540;51.690;9.562;2023-08-01T04:04:08;97405.22;;;16.37;100.00
57708;BME280;43540;51.690;9.562;2023-08-01T04:06:35;97404.00;;;16.33;100.00
57708;BME280;43540;51.690;9.562;2023-08-01T04:09:02;97401.94;;;16.41;100.00
57708;BME280;43540;51.690;9.562;2023-08-01T04:11:29;97385.72;;;16.31;100.00
57708;BME280;43540;51.690;9.562;2023-08-01T04:13:56;97393.56;;;16.44;100.00
57708;BME280;43540;51.690;9.562;2023-08-01T04:16:23;97399.25;;;16.48;100.00
57708;BME280;43540;51.690;9.562;2023-08-01T04:18:50;97405.75;;;16.52;100.00
57708;BME280;43540;51.690;9.562;2023-08-01T04:21:20;97386.31;;;16.33;100.00
57708;BME280;43540;51.690;9.562;2023-08-01T04:23:53;97409.13;;;16.28;100.00
57708;BME280;43540;51.690;9.562;2023-08-01T04:26:20;97405.69;;;16.20;100.00
57708;BME280;43540;51.690;9.562;2023-08-01T04:28:47;97412.34;;;16.30;100.00
57708;BME280;43540;51.690;9.562;2023-08-01T04:31:19;97409.50;;;16.31;100.00
57708;BME280;43540;51.690;9.562;2023-08-01T04:33:47;97416.66;;;16.17;100.00
57708;BME280;43540;51.690;9.562;2023-08-01T04:36:14;97407.75;;;16.12;100.00
57708;BME280;43540;51.690;9.562;2023-08-01T04:38:41;97421.13;;;16.17;100.00
57708;BME280;43540;51.690;9.562;2023-08-01T04:41:08;97431.31;;;16.13;100.00
57708;BME280;43540;51.690;9.562;2023-08-01T04:43:35;97421.13;;;16.17;100.00
57708;BME280;43540;51.690;9.562;2023-08-01T04:46:02;97390.47;;;16.09;100.00
57708;BME280;43540;51.690;9.562;2023-08-01T04:48:29;97421.09;;;16.30;100.00
57708;BME280;43540;51.690;9.562;2023-08-01T04:50:56;97383.94;;;16.12;100.00
57708;BME280;43540;51.690;9.562;2023-08-01T04:53:23;97412.16;;;16.25;100.00
57708;BME280;43540;51.690;9.562;2023-08-01T04:55:50;97413.16;;;16.30;100.00
57708;BME280;43540;51.690;9.562;2023-08-01T04:58:18;97410.13;;;16.27;100.00
57708;BME280;43540;51.690;9.562;2023-08-01T05:00:45;97406.50;;;16.14;100.00
57708;BME280;43540;51.690;9.562;2023-08-01T05:03:11;97420.31;;;16.23;100.00
57708;BME280;43540;51.690;9.562;2023-08-01T05:05:39;97415.03;;;16.23;100.00
57708;BME280;43540;51.690;9.562;2023-08-01T05:08:05;97410.94;;;16.27;100.00
57708;BME280;43540;51.690;9.562;2023-08-01T05:10:32;97403.84;;;16.28;100.00
57708;BME280;43540;51.690;9.562;2023-08-01T05:12:59;97413.38;;;16.29;100.00
57708;BME280;43540;51.690;9.562;2023-08-01T05:15:26;97418.69;;;16.29;100.00
57708;BME280;43540;51.690;9.562;2023-08-01T05:17:56;97409.94;;;16.21;100.00
57708;BME280;43540;51.690;9.562;2023-08-01T05:20:23;97415.63;;;16.25;100.00
57708;BME280;43540;51.690;9.562;2023-08-01T05:22:49;97411.56;;;16.29;100.00
57708;BME280;43540;51.690;9.562;2023-08-01T05:25:18;97370.53;;;16.07;100.00
57708;BME280;43540;51.690;9.562;2023-08-01T05:27:45;97414.56;;;16.33;100.00
57708;BME280;43540;51.690;9.562;2023-08-01T05:30:15;97411.94;;;16.33;100.00
57708;BME280;43540;51.690;9.562;2023-08-01T05:32:42;97406.47;;;16.28;100.00
57708;BME280;43540;51.690;9.562;2023-08-01T05:35:13;97417.44;;;16.31;100.00
57708;BME280;43540;51.690;9.562;2023-08-01T05:37:40;97421.47;;;16.34;100.00
57708;BME280;43540;51.690;9.562;2023-08-01T05:40:07;97425.59;;;16.23;100.00
57708;BME280;43540;51.690;9.562;2023-08-01T05:42:35;97380.16;;;15.88;100.00
57708;BME280;43540;51.690;9.562;2023-08-01T05:45:01;97441.09;;;16.13;100.00
57708;BME280;43540;51.690;9.562;2023-08-01T05:47:33;97449.03;;;16.00;100.00
57708;BME280;43540;51.690;9.562;2023-08-01T05:50:02;97456.78;;;16.01;100.00
57708;BME280;43540;51.690;9.562;2023-08-01T05:52:31;97454.16;;;15.75;100.00
57708;BME280;43540;51.690;9.562;2023-08-01T05:54:58;97445.03;;;15.64;100.00
57708;BME280;43540;51.690;9.562;2023-08-01T05:57:25;97456.97;;;15.80;100.00
57708;BME280;43540;51.690;9.562;2023-08-01T05:59:52;97458.44;;;15.82;100.00
57708;BME280;43540;51.690;9.562;2023-08-01T06:02:19;97455.75;;;15.89;100.00
57708;BME280;43540;51.690;9.562;2023-08-01T06:04:46;97461.25;;;15.94;100.00
57708;BME280;43540;51.690;9.562;2023-08-01T06:07:13;97443.59;;;15.68;100.00
57708;BME280;43540;51.690;9.562;2023-08-01T06:09:40;97461.88;;;15.70;100.00
57708;BME280;43540;51.690;9.562;2023-08-01T06:12:07;97457.00;;;15.73;100.00
57708;BME280;43540;51.690;9.562;2023-08-01T06:14:33;97462.47;;;15.78;100.00
57708;BME280;43540;51.690;9.562;2023-08-01T06:17:00;97467.56;;;15.67;100.00
57708;BME280;43540;51.690;9.562;2023-08-01T06:19:27;97466.72;;;15.59;100.00
57708;BME280;43540;51.690;9.562;2023-08-01T06:21:55;97462.88;;;15.62;100.00
57708;BME280;43540;51.690;9.562;2023-08-01T06:24:21;97428.13;;;15.45;100.00
57708;BME280;43540;51.690;9.562;2023-08-01T06:26:48;97475.44;;;15.53;100.00
57708;BME280;43540;51.690;9.562;2023-08-01T06:29:15;97480.75;;;15.60;100.00
57708;BME280;43540;51.690;9.562;2023-08-01T06:31:42;97478.31;;;15.58;100.00
57708;BME280;43540;51.690;9.562;2023-08-01T06:34:09;97473.44;;;15.55;100.00
57708;BME280;43540;51.690;9.562;2023-08-01T06:36:36;97480.53;;;15.48;100.00
57708;BME280;43540;51.690;9.562;2023-08-01T06:39:02;97489.88;;;15.51;100.00
57708;BME280;43540;51.690;9.562;2023-08-01T06:41:30;97487.84;;;15.40;100.00
57708;BME280;43540;51.690;9.562;2023-08-01T06:43:57;97458.78;;;15.33;100.00
57708;BME280;43540;51.690;9.562;2023-08-01T06:46:24;97494.78;;;15.60;100.00
57708;BME280;43540;51.690;9.562;2023-08-01T06:48:51;97497.00;;;15.57;100.00
57708;BME280;43540;51.690;9.562;2023-08-01T06:51:17;97502.06;;;15.58;100.00
57708;BME280;43540;51.690;9.562;2023-08-01T06:53:44;97502.88;;;15.52;100.00
57708;BME280;43540;51.690;9.562;2023-08-01T06:56:11;97484.59;;;15.38;100.00
57708;BME280;43540;51.690;9.562;2023-08-01T06:58:37;97495.16;;;15.51;100.00
57708;BME280;43540;51.690;9.562;2023-08-01T07:01:04;97493.94;;;15.47;100.00
57708;BME280;43540;51.690;9.562;2023-08-01T07:03:32;97496.38;;;15.48;100.00
57708;BME280;43540;51.690;9.562;2023-08-01T07:05:59;97483.38;;;15.47;100.00
57708;BME280;43540;51.690;9.562;2023-08-01T07:08:26;97499.22;;;15.47;100.00
57708;BME280;43540;51.690;9.562;2023-08-01T07:10:53;97507.53;;;15.50;100.00
57708;BME280;43540;51.690;9.562;2023-08-01T07:13:19;97509.97;;;15.45;100.00
57708;BME280;43540;51.690;9.562;2023-08-01T07:15:46;97506.94;;;15.42;100.00
57708;BME280;43540;51.690;9.562;2023-08-01T07:18:14;97497.19;;;15.42;100.00
57708;BME280;43540;51.690;9.562;2023-08-01T07:20:41;97523.81;;;15.47;100.00
57708;BME280;43540;51.690;9.562;2023-08-01T07:23:09;97522.78;;;15.48;100.00
57708;BME280;43540;51.690;9.562;2023-08-01T07:25:36;97474.19;;;15.16;100.00
57708;BME280;43540;51.690;9.562;2023-08-01T07:28:03;97525.44;;;15.48;100.00
57708;BME280;43540;51.690;9.562;2023-08-01T07:30:31;97520.97;;;15.49;100.00
57708;BME280;43540;51.690;9.562;2023-08-01T07:32:58;97517.50;;;15.42;100.00
57708;BME280;43540;51.690;9.562;2023-08-01T07:35:25;97526.00;;;15.44;100.00
57708;BME280;43540;51.690;9.562;2023-08-01T07:37:52;97531.31;;;15.50;100.00
57708;BME280;43540;51.690;9.562;2023-08-01T07:40:19;97525.19;;;15.43;100.00
57708;BME280;43540;51.690;9.562;2023-08-01T07:42:46;97538.81;;;15.53;100.00
57708;BME280;43540;51.690;9.562;2023-08-01T07:45:13;97535.56;;;15.51;100.00
57708;BME280;43540;51.690;9.562;2023-08-01T07:47:40;97535.16;;;15.54;100.00
57708;BME280;43540;51.690;9.562;2023-08-01T07:50:07;97532.72;;;15.53;100.00
57708;BME280;43540;51.690;9.562;2023-08-01T07:52:33;97538.25;;;15.58;100.00
57708;BME280;43540;51.690;9.562;2023-08-01T07:55:00;97527.66;;;15.51;100.00
57708;BME280;43540;51.690;9.562;2023-08-01T07:57:27;97549.66;;;15.78;100.00
57708;BME280;43540;51.690;9.562;2023-08-01T07:59:54;97554.53;;;15.81;100.00
57708;BME280;43540;51.690;9.562;2023-08-01T08:02:20;97540.53;;;15.74;100.00
57708;BME280;43540;51.690;9.562;2023-08-01T08:04:47;97556.78;;;15.78;100.00
57708;BME280;43540;51.690;9.562;2023-08-01T08:07:14;97550.47;;;15.79;100.00
57708;BME280;43540;51.690;9.562;2023-08-01T08:09:40;97554.53;;;15.88;100.00
57708;BME280;43540;51.690;9.562;2023-08-01T08:12:07;97555.97;;;16.04;100.00
57708;BME280;43540;51.690;9.562;2023-08-01T08:14:35;97555.16;;;16.10;100.00
57708;BME280;43540;51.690;9.562;2023-08-01T08:17:01;97535.22;;;16.14;100.00
57708;BME280;43540;51.690;9.562;2023-08-01T08:19:28;97549.63;;;16.18;100.00
57708;BME280;43540;51.690;9.562;2023-08-01T08:21:55;97555.53;;;16.27;100.00
57708;BME280;43540;51.690;9.562;2023-08-01T08:24:22;97557.38;;;16.00;100.00
57708;BME280;43540;51.690;9.562;2023-08-01T08:26:48;97571.81;;;15.90;100.00
57708;BME280;43540;51.690;9.562;2023-08-01T08:29:15;97560.84;;;15.87;100.00
57708;BME280;43540;51.690;9.562;2023-08-01T08:31:42;97569.38;;;15.96;100.00
57708;BME280;43540;51.690;9.562;2023-08-01T08:34:10;97574.47;;;16.04;100.00
57708;BME280;43540;51.690;9.562;2023-08-01T08:36:36;97567.56;;;16.09;100.00
57708;BME280;43540;51.690;9.562;2023-08-01T08:39:03;97566.13;;;16.00;100.00
57708;BME280;43540;51.690;9.562;2023-08-01T08:41:35;97563.88;;;16.24;100.00
57708;BME280;43540;51.690;9.562;2023-08-01T08:44:07;97559.81;;;16.14;100.00
57708;BME280;43540;51.690;9.562;2023-08-01T08:46:42;97560.63;;;16.28;100.00
57708;BME280;43540;51.690;9.562;2023-08-01T08:49:11;97560.97;;;16.58;100.00
57708;BME280;43540;51.690;9.562;2023-08-01T08:51:38;97568.09;;;16.64;100.00
57708;BME280;43540;51.690;9.562;2023-08-01T08:54:05;97570.31;;;16.61;100.00
57708;BME280;43540;51.690;9.562;2023-08-01T08:56:33;97563.84;;;16.50;100.00
57708;BME280;43540;51.690;9.562;2023-08-01T08:59:01;97567.50;;;16.49;100.00
57708;BME280;43540;51.690;9.562;2023-08-01T09:01:28;97564.25;;;16.34;100.00
57708;BME280;43540;51.690;9.562;2023-08-01T09:03:55;97576.06;;;16.38;100.00
57708;BME280;43540;51.690;9.562;2023-08-01T09:06:48;97566.25;;;16.65;100.00
57708;BME280;43540;51.690;9.562;2023-08-01T09:09:17;97571.22;;;16.99;100.00
57708;BME280;43540;51.690;9.562;2023-08-01T09:11:48;97574.91;;;16.98;100.00
57708;BME280;43540;51.690;9.562;2023-08-01T09:14:16;97579.88;;;16.75;100.00
57708;BME280;43540;51.690;9.562;2023-08-01T09:16:45;97584.97;;;16.83;100.00
57708;BME280;43540;51.690;9.562;2023-08-01T09:19:23;97577.19;;;16.82;100.00
57708;BME280;43540;51.690;9.562;2023-08-01T09:21:51;97582.69;;;16.93;100.00
57708;BME280;43540;51.690;9.562;2023-08-01T09:24:21;97579.38;;;16.98;100.00
57708;BME280;43540;51.690;9.562;2023-08-01T09:26:49;97564.59;;;16.84;100.00
57708;BME280;43540;51.690;9.562;2023-08-01T09:29:17;97568.13;;;17.09;100.00
57708;BME280;43540;51.690;9.562;2023-08-01T09:31:44;97579.47;;;17.29;100.00
57708;BME280;43540;51.690;9.562;2023-08-01T09:34:37;97576.63;;;17.24;100.00
57708;BME280;43540;51.690;9.562;2023-08-01T09:37:04;97578.09;;;17.20;100.00
57708;BME280;43540;51.690;9.562;2023-08-01T09:39:34;97557.41;;;16.97;100.00
57708;BME280;43540;51.690;9.562;2023-08-01T09:42:02;97574.25;;;17.10;100.00
57708;BME280;43540;51.690;9.562;2023-08-01T09:44:29;97585.03;;;17.08;100.00
57708;BME280;43540;51.690;9.562;2023-08-01T09:47:04;97587.66;;;17.21;100.00
57708;BME280;43540;51.690;9.562;2023-08-01T09:49:33;97588.59;;;17.33;100.00
57708;BME280;43540;51.690;9.562;2023-08-01T09:52:01;97596.13;;;17.37;100.00
57708;BME280;43540;51.690;9.562;2023-08-01T09:54:28;97600.13;;;17.46;100.00
57708;BME280;43540;51.690;9.562;2023-08-01T09:56:55;97595.88;;;17.45;100.00
57708;BME280;43540;51.690;9.562;2023-08-01T09:59:30;97600.19;;;17.39;100.00
57708;BME280;43540;51.690;9.562;2023-08-01T10:01:57;97602.31;;;17.55;100.00
57708;BME280;43540;51.690;9.562;2023-08-01T10:04:30;97603.19;;;17.87;100.00
57708;BME280;43540;51.690;9.562;2023-08-01T10:06:59;97594.94;;;18.02;100.00
57708;BME280;43540;51.690;9.562;2023-08-01T10:09:26;97569.81;;;17.80;100.00
57708;BME280;43540;51.690;9.562;2023-08-01T10:11:56;97605.50;;;17.77;100.00
57708;BME280;43540;51.690;9.562;2023-08-01T10:14:25;97615.13;;;17.65;100.00
57708;BME280;43540;51.690;9.562;2023-08-01T10:16:53;97596.91;;;17.44;100.00
57708;BME280;43540;51.690;9.562;2023-08-01T10:19:20;97590.66;;;17.31;100.00
57708;BME280;43540;51.690;9.562;2023-08-01T10:21:48;97596.03;;;17.12;100.00
57708;BME280;43540;51.690;9.562;2023-08-01T10:24:16;97611.41;;;17.34;100.00
57708;BME280;43540;51.690;9.562;2023-08-01T10:26:47;97612.94;;;17.55;100.00
57708;BME280;43540;51.690;9.562;2023-08-01T10:29:13;97610.22;;;17.75;100.00
57708;BME280;43540;51.690;9.562;2023-08-01T10:31:51;97590.22;;;17.73;100.00
57708;BME280;43540;51.690;9.562;2023-08-01T10:34:19;97605.19;;;17.54;100.00
57708;BME280;43540;51.690;9.562;2023-08-01T10:36:54;97606.56;;;17.63;100.00
57708;BME280;43540;51.690;9.562;2023-08-01T10:39:22;97617.28;;;17.43;100.00
57708;BME280;43540;51.690;9.562;2023-08-01T10:44:50;97630.84;;;17.60;100.00
57708;BME280;43540;51.690;9.562;2023-08-01T10:47:27;97427.06;;;16.70;100.00
57708;BME280;43540;51.690;9.562;2023-08-01T10:49:56;97468.50;;;17.21;100.00
57708;BME280;43540;51.690;9.562;2023-08-01T10:52:24;97428.75;;;16.96;100.00
57708;BME280;43540;51.690;9.562;2023-08-01T10:55:04;97440.91;;;17.04;100.00
57708;BME280;43540;51.690;9.562;2023-08-01T10:57:36;97433.84;;;16.91;100.00
57708;BME280;43540;51.690;9.562;2023-08-01T11:00:04;97445.66;;;16.95;100.00
57708;BME280;43540;51.690;9.562;2023-08-01T11:05:28;97501.56;;;17.75;100.00
57708;BME280;43540;51.690;9.562;2023-08-01T11:07:58;97611.09;;;18.44;100.00
57708;BME280;43540;51.690;9.562;2023-08-01T11:10:26;97489.19;;;17.62;100.00
57708;BME280;43540;51.690;9.562;2023-08-01T11:12:54;97474.22;;;17.50;100.00
57708;BME280;43540;51.690;9.562;2023-08-01T11:15:22;97433.50;;;17.69;100.00
57708;BME280;43540;51.690;9.562;2023-08-01T11:17:52;97602.97;;;18.82;100.00
57708;BME280;43540;51.690;9.562;2023-08-01T11:20:22;97430.63;;;17.96;100.00
57708;BME280;43540;51.690;9.562;2023-08-01T11:23:00;97429.09;;;18.06;100.00
57708;BME280;43540;51.690;9.562;2023-08-01T11:25:36;97427.75;;;18.15;100.00
57708;BME280;43540;51.690;9.562;2023-08-01T11:28:10;97431.50;;;18.26;100.00
57708;BME280;43540;51.690;9.562;2023-08-01T11:30:42;97417.59;;;18.12;100.00
57708;BME280;43540;51.690;9.562;2023-08-01T11:33:21;97467.91;;;18.19;100.00
57708;BME280;43540;51.690;9.562;2023-08-01T11:35:54;97422.72;;;17.89;100.00
57708;BME280;43540;51.690;9.562;2023-08-01T11:38:27;97445.56;;;17.90;100.00
57708;BME280;43540;51.690;9.562;2023-08-01T11:41:00;97437.78;;;17.70;100.00
57708;BME280;43540;51.690;9.562;2023-08-01T11:43:41;97431.69;;;17.70;100.00
57708;BME280;43540;51.690;9.562;2023-08-01T11:46:10;97423.69;;;17.76;100.00
57708;BME280;43540;51.690;9.562;2023-08-01T11:48:37;97444.47;;;17.98;100.00
57708;BME280;43540;51.690;9.562;2023-08-01T11:51:07;97502.91;;;18.64;100.00
57708;BME280;43540;51.690;9.562;2023-08-01T11:53:34;97425.34;;;18.32;100.00
57708;BME280;43540;51.690;9.562;2023-08-01T11:56:06;97428.56;;;18.16;100.00
57708;BME280;43540;51.690;9.562;2023-08-01T12:01:54;97480.81;;;18.52;100.00
57708;BME280;43540;51.690;9.562;2023-08-01T12:04:29;97455.53;;;18.13;100.00
57708;BME280;43540;51.690;9.562;2023-08-01T12:06:56;97471.75;;;18.23;100.00
57708;BME280;43540;51.690;9.562;2023-08-01T12:09:31;97512.41;;;18.35;100.00
57708;BME280;43540;51.690;9.562;2023-08-01T12:11:59;97491.28;;;18.47;100.00
57708;BME280;43540;51.690;9.562;2023-08-01T12:14:31;97450.81;;;18.52;100.00
57708;BME280;43540;51.690;9.562;2023-08-01T12:16:58;97504.75;;;19.00;100.00
57708;BME280;43540;51.690;9.562;2023-08-01T12:19:26;97503.19;;;19.53;100.00
57708;BME280;43540;51.690;9.562;2023-08-01T12:21:53;97429.56;;;19.30;100.00
57708;BME280;43540;51.690;9.562;2023-08-01T12:24:22;97570.06;;;19.80;100.00
57708;BME280;43540;51.690;9.562;2023-08-01T12:26:50;97620.38;;;19.93;100.00
57708;BME280;43540;51.690;9.562;2023-08-01T12:29:17;97480.28;;;18.80;99.68
57708;BME280;43540;51.690;9.562;2023-08-01T12:31:48;97443.16;;;18.25;100.00
57708;BME280;43540;51.690;9.562;2023-08-01T12:34:16;97445.34;;;18.28;100.00
57708;BME280;43540;51.690;9.562;2023-08-01T12:40:23;97455.91;;;18.35;100.00
57708;BME280;43540;51.690;9.562;2023-08-01T12:42:51;97516.19;;;18.64;100.00
57708;BME280;43540;51.690;9.562;2023-08-01T12:45:18;97658.72;;;19.37;100.00
57708;BME280;43540;51.690;9.562;2023-08-01T12:47:48;97503.44;;;18.55;100.00
57708;BME280;43540;51.690;9.562;2023-08-01T12:50:16;97489.97;;;18.38;100.00
57708;BME280;43540;51.690;9.562;2023-08-01T12:52:45;97478.13;;;17.97;100.00
57708;BME280;43540;51.690;9.562;2023-08-01T12:55:12;97549.75;;;18.15;100.00
57708;BME280;43540;51.690;9.562;2023-08-01T13:01:27;97541.69;;;17.47;100.00
57708;BME280;43540;51.690;9.562;2023-08-01T13:06:41;97738.56;;;17.93;100.00
57708;BME280;43540;51.690;9.562;2023-08-01T13:09:23;97744.25;;;17.38;100.00
57708;BME280;43540;51.690;9.562;2023-08-01T13:14:41;97530.59;;;15.08;100.00
57708;BME280;43540;51.690;9.562;2023-08-01T13:17:08;97544.44;;;15.11;100.00